sensor_id;sensor_type;location;lat;lon;timestamp;P1;durP1;ratioP1;P2;durP2;ratioP2
65545;SDS011;52177;55.968;37.498;2023-03-31T00:00:16;3.40;;;3.10;;
65545;SDS011;52177;55.968;37.498;2023-03-31T00:00:50;7.05;;;5.78;;
65545;SDS011;52177;55.968;37.498;2023-03-31T00:01:22;22.08;;;18.30;;
65545;SDS011;52177;55.968;37.498;2023-03-31T00:01:53;19.77;;;16.33;;
65545;SDS011;52177;55.968;37.498;2023-03-31T00:02:23;42.72;;;31.90;;
65545;SDS011;52177;55.968;37.498;2023-03-31T00:02:53;42.42;;;31.30;;
65545;SDS011;52177;55.968;37.498;2023-03-31T00:03:26;13.98;;;10.68;;
65545;SDS011;52177;55.968;37.498;2023-03-31T00:03:57;7.13;;;6.43;;
65545;SDS011;52177;55.968;37.498;2023-03-31T00:04:33;8.13;;;7.15;;
65545;SDS011;52177;55.968;37.498;2023-03-31T00:05:04;12.82;;;9.85;;
65545;SDS011;52177;55.968;37.498;2023-03-31T00:05:40;4.72;;;4.05;;
65545;SDS011;52177;55.968;37.498;2023-03-31T00:06:17;3.55;;;3.13;;
65545;SDS011;52177;55.968;37.498;2023-03-31T00:06:48;2.83;;;2.60;;
65545;SDS011;52177;55.968;37.498;2023-03-31T00:07:20;2.97;;;2.78;;
65545;SDS011;52177;55.968;37.498;2023-03-31T00:07:54;3.33;;;3.03;;
65545;SDS011;52177;55.968;37.498;2023-03-31T00:08:30;3.30;;;3.00;;
65545;SDS011;52177;55.968;37.498;2023-03-31T00:09:04;3.22;;;2.92;;
65545;SDS011;52177;55.968;37.498;2023-03-31T00:09:40;3.42;;;3.13;;
65545;SDS011;52177;55.968;37.498;2023-03-31T00:10:15;3.40;;;3.10;;
65545;SDS011;52177;55.968;37.498;2023-03-31T00:10:48;3.30;;;3.00;;
65545;SDS011;52177;55.968;37.498;2023-03-31T00:11:19;5.00;;;3.45;;
65545;SDS011;52177;55.968;37.498;2023-03-31T00:11:50;3.25;;;2.97;;
65545;SDS011;52177;55.968;37.498;2023-03-31T00:12:23;3.30;;;2.72;;
65545;SDS011;52177;55.968;37.498;2023-03-31T00:12:54;3.42;;;2.90;;
65545;SDS011;52177;55.968;37.498;2023-03-31T00:13:24;3.20;;;2.92;;
65545;SDS011;52177;55.968;37.498;2023-03-31T00:13:55;4.88;;;3.40;;
65545;SDS011;52177;55.968;37.498;2023-03-31T00:14:25;3.72;;;3.42;;
65545;SDS011;52177;55.968;37.498;2023-03-31T00:14:55;3.13;;;2.90;;
65545;SDS011;52177;55.968;37.498;2023-03-31T00:15:26;3.00;;;2.70;;
65545;SDS011;52177;55.968;37.498;2023-03-31T00:16:01;3.70;;;3.10;;
65545;SDS011;52177;55.968;37.498;2023-03-31T00:16:34;3.47;;;3.17;;
65545;SDS011;52177;55.968;37.498;2023-03-31T00:17:05;3.28;;;2.97;;
65545;SDS011;52177;55.968;37.498;2023-03-31T00:17:35;3.72;;;3.42;;
65545;SDS011;52177;55.968;37.498;2023-03-31T00:18:05;4.10;;;3.78;;
65545;SDS011;52177;55.968;37.498;2023-03-31T00:18:36;4.20;;;3.88;;
65545;SDS011;52177;55.968;37.498;2023-03-31T00:19:06;5.30;;;4.15;;
65545;SDS011;52177;55.968;37.498;2023-03-31T00:19:39;4.20;;;3.80;;
65545;SDS011;52177;55.968;37.498;2023-03-31T00:20:10;3.22;;;3.03;;
65545;SDS011;52177;55.968;37.498;2023-03-31T00:20:41;4.00;;;3.70;;
65545;SDS011;52177;55.968;37.498;2023-03-31T00:21:13;4.60;;;4.20;;
65545;SDS011;52177;55.968;37.498;2023-03-31T00:21:53;4.47;;;4.07;;
65545;SDS011;52177;55.968;37.498;2023-03-31T00:22:23;4.38;;;3.97;;
65545;SDS011;52177;55.968;37.498;2023-03-31T00:22:56;4.20;;;3.80;;
65545;SDS011;52177;55.968;37.498;2023-03-31T00:23:26;4.50;;;4.10;;
65545;SDS011;52177;55.968;37.498;2023-03-31T00:23:58;4.25;;;3.85;;
65545;SDS011;52177;55.968;37.498;2023-03-31T00:24:30;4.60;;;3.25;;
65545;SDS011;52177;55.968;37.498;2023-03-31T00:25:01;3.60;;;3.30;;
65545;SDS011;52177;55.968;37.498;2023-03-31T00:25:32;4.22;;;3.58;;
65545;SDS011;52177;55.968;37.498;2023-03-31T00:26:02;4.47;;;4.07;;
65545;SDS011;52177;55.968;37.498;2023-03-31T00:26:33;4.05;;;3.65;;
65545;SDS011;52177;55.968;37.498;2023-03-31T00:27:05;3.65;;;3.35;;
65545;SDS011;52177;55.968;37.498;2023-03-31T00:27:35;3.60;;;3.30;;
65545;SDS011;52177;55.968;37.498;2023-03-31T00:28:05;3.45;;;3.15;;
65545;SDS011;52177;55.968;37.498;2023-03-31T00:28:36;3.40;;;3.10;;
65545;SDS011;52177;55.968;37.498;2023-03-31T00:29:07;3.33;;;3.03;;
65545;SDS011;52177;55.968;37.498;2023-03-31T00:29:39;3.60;;;3.30;;
65545;SDS011;52177;55.968;37.498;2023-03-31T00:30:11;5.28;;;4.15;;
65545;SDS011;52177;55.968;37.498;2023-03-31T00:30:42;5.43;;;4.93;;
65545;SDS011;52177;55.968;37.498;2023-03-31T00:31:13;5.10;;;4.60;;
65545;SDS011;52177;55.968;37.498;2023-03-31T00:31:43;5.72;;;4.80;;
65545;SDS011;52177;55.968;37.498;2023-03-31T00:32:13;4.72;;;3.88;;
65545;SDS011;52177;55.968;37.498;2023-03-31T00:32:44;4.13;;;3.72;;
65545;SDS011;52177;55.968;37.498;2023-03-31T00:33:14;3.65;;;3.33;;
65545;SDS011;52177;55.968;37.498;2023-03-31T00:33:44;4.38;;;3.97;;
65545;SDS011;52177;55.968;37.498;2023-03-31T00:34:15;3.85;;;3.45;;
65545;SDS011;52177;55.968;37.498;2023-03-31T00:34:45;5.75;;;4.00;;
65545;SDS011;52177;55.968;37.498;2023-03-31T00:35:16;5.20;;;4.70;;
65545;SDS011;52177;55.968;37.498;2023-03-31T00:35:49;4.82;;;4.40;;
65545;SDS011;52177;55.968;37.498;2023-03-31T00:36:21;5.53;;;5.03;;
65545;SDS011;52177;55.968;37.498;2023-03-31T00:36:58;5.32;;;4.10;;
65545;SDS011;52177;55.968;37.498;2023-03-31T00:37:31;4.38;;;3.97;;
65545;SDS011;52177;55.968;37.498;2023-03-31T00:38:04;3.75;;;3.45;;
65545;SDS011;52177;55.968;37.498;2023-03-31T00:38:38;4.07;;;3.72;;
65545;SDS011;52177;55.968;37.498;2023-03-31T00:39:08;3.58;;;3.38;;
65545;SDS011;52177;55.968;37.498;2023-03-31T00:39:38;4.10;;;3.70;;
65545;SDS011;52177;55.968;37.498;2023-03-31T00:40:09;3.92;;;3.40;;
65545;SDS011;52177;55.968;37.498;2023-03-31T00:40:44;5.63;;;4.65;;
65545;SDS011;52177;55.968;37.498;2023-03-31T00:41:17;5.65;;;4.55;;
65545;SDS011;52177;55.968;37.498;2023-03-31T00:41:48;4.50;;;4.07;;
65545;SDS011;52177;55.968;37.498;2023-03-31T00:42:19;3.47;;;3.17;;
65545;SDS011;52177;55.968;37.498;2023-03-31T00:42:49;3.15;;;2.90;;
65545;SDS011;52177;55.968;37.498;2023-03-31T00:43:23;3.20;;;2.88;;
65545;SDS011;52177;55.968;37.498;2023-03-31T00:43:59;3.47;;;3.17;;
65545;SDS011;52177;55.968;37.498;2023-03-31T00:45:43;4.75;;;3.83;;
65545;SDS011;52177;55.968;37.498;2023-03-31T00:46:17;3.45;;;2.83;;
65545;SDS011;52177;55.968;37.498;2023-03-31T00:46:55;3.58;;;2.85;;
65545;SDS011;52177;55.968;37.498;2023-03-31T00:47:31;2.70;;;2.42;;
65545;SDS011;52177;55.968;37.498;2023-03-31T00:48:04;2.75;;;2.55;;
65545;SDS011;52177;55.968;37.498;2023-03-31T00:48:41;3.08;;;2.88;;
65545;SDS011;52177;55.968;37.498;2023-03-31T00:49:24;3.05;;;2.85;;
65545;SDS011;52177;55.968;37.498;2023-03-31T00:50:01;4.63;;;4.03;;
65545;SDS011;52177;55.968;37.498;2023-03-31T00:50:33;4.82;;;3.80;;
65545;SDS011;52177;55.968;37.498;2023-03-31T00:51:06;3.78;;;2.92;;
65545;SDS011;52177;55.968;37.498;2023-03-31T00:51:37;2.88;;;2.67;;
65545;SDS011;52177;55.968;37.498;2023-03-31T00:52:09;3.63;;;3.33;;
65545;SDS011;52177;55.968;37.498;2023-03-31T00:52:44;3.42;;;3.05;;
65545;SDS011;52177;55.968;37.498;2023-03-31T00:53:16;2.35;;;2.15;;
65545;SDS011;52177;55.968;37.498;2023-03-31T00:53:52;2.60;;;2.40;;
65545;SDS011;52177;55.968;37.498;2023-03-31T00:54:26;2.72;;;2.53;;
65545;SDS011;52177;55.968;37.498;2023-03-31T00:55:00;2.90;;;2.63;;
65545;SDS011;52177;55.968;37.498;2023-03-31T00:55:42;3.60;;;3.30;;
65545;SDS011;52177;55.968;37.498;2023-03-31T00:56:16;2.97;;;2.78;;
65545;SDS011;52177;55.968;37.498;2023-03-31T00:56:47;3.53;;;3.22;;
65545;SDS011;52177;55.968;37.498;2023-03-31T00:57:19;3.50;;;3.20;;
65545;SDS011;52177;55.968;37.498;2023-03-31T00:57:51;3.10;;;2.70;;
65545;SDS011;52177;55.968;37.498;2023-03-31T00:58:25;3.20;;;2.78;;
65545;SDS011;52177;55.968;37.498;2023-03-31T00:58:58;3.50;;;3.20;;
65545;SDS011;52177;55.968;37.498;2023-03-31T00:59:39;3.33;;;2.83;;
65545;SDS011;52177;55.968;37.498;2023-03-31T01:00:13;3.38;;;3.05;;
65545;SDS011;52177;55.968;37.498;2023-03-31T01:00:45;3.83;;;3.35;;
65545;SDS011;52177;55.968;37.498;2023-03-31T01:01:18;4.80;;;4.18;;
65545;SDS011;52177;55.968;37.498;2023-03-31T01:01:53;3.53;;;3.20;;
65545;SDS011;52177;55.968;37.498;2023-03-31T01:02:28;4.47;;;4.00;;
65545;SDS011;52177;55.968;37.498;2023-03-31T01:02:59;4.03;;;3.67;;
65545;SDS011;52177;55.968;37.498;2023-03-31T01:03:35;5.03;;;4.53;;
65545;SDS011;52177;55.968;37.498;2023-03-31T01:04:07;3.80;;;3.50;;
65545;SDS011;52177;55.968;37.498;2023-03-31T01:04:47;5.10;;;4.60;;
65545;SDS011;52177;55.968;37.498;2023-03-31T01:05:28;3.58;;;3.28;;
65545;SDS011;52177;55.968;37.498;2023-03-31T01:06:03;4.25;;;3.38;;
65545;SDS011;52177;55.968;37.498;2023-03-31T01:06:42;3.85;;;3.55;;
65545;SDS011;52177;55.968;37.498;2023-03-31T01:07:52;4.68;;;3.17;;
65545;SDS011;52177;55.968;37.498;2023-03-31T01:08:25;4.50;;;3.75;;
65545;SDS011;52177;55.968;37.498;2023-03-31T01:08:57;3.38;;;3.00;;
65545;SDS011;52177;55.968;37.498;2023-03-31T01:09:29;3.47;;;3.03;;
65545;SDS011;52177;55.968;37.498;2023-03-31T01:10:03;3.08;;;2.63;;
65545;SDS011;52177;55.968;37.498;2023-03-31T01:10:38;3.30;;;3.00;;
65545;SDS011;52177;55.968;37.498;2023-03-31T01:11:13;3.10;;;2.80;;
65545;SDS011;52177;55.968;37.498;2023-03-31T01:11:47;2.70;;;2.50;;
65545;SDS011;52177;55.968;37.498;2023-03-31T01:12:18;2.70;;;2.50;;
65545;SDS011;52177;55.968;37.498;2023-03-31T01:12:51;3.40;;;3.10;;
65545;SDS011;52177;55.968;37.498;2023-03-31T01:13:24;3.50;;;3.20;;
65545;SDS011;52177;55.968;37.498;2023-03-31T01:13:56;3.22;;;2.92;;
65545;SDS011;52177;55.968;37.498;2023-03-31T01:14:27;3.53;;;2.95;;
65545;SDS011;52177;55.968;37.498;2023-03-31T01:14:58;3.05;;;2.75;;
65545;SDS011;52177;55.968;37.498;2023-03-31T01:15:29;3.22;;;2.90;;
65545;SDS011;52177;55.968;37.498;2023-03-31T01:15:59;2.90;;;2.70;;
65545;SDS011;52177;55.968;37.498;2023-03-31T01:16:30;3.28;;;2.70;;
65545;SDS011;52177;55.968;37.498;2023-03-31T01:17:00;2.20;;;2.00;;
65545;SDS011;52177;55.968;37.498;2023-03-31T01:17:31;2.70;;;2.50;;
65545;SDS011;52177;55.968;37.498;2023-03-31T01:18:06;2.65;;;2.42;;
65545;SDS011;52177;55.968;37.498;2023-03-31T01:18:39;2.60;;;2.40;;
65545;SDS011;52177;55.968;37.498;2023-03-31T01:19:20;4.07;;;2.30;;
65545;SDS011;52177;55.968;37.498;2023-03-31T01:20:50;3.35;;;2.83;;
65545;SDS011;52177;55.968;37.498;2023-03-31T01:22:05;2.83;;;2.50;;
65545;SDS011;52177;55.968;37.498;2023-03-31T01:23:39;2.53;;;2.33;;
65545;SDS011;52177;55.968;37.498;2023-03-31T01:24:35;3.17;;;2.47;;
65545;SDS011;52177;55.968;37.498;2023-03-31T01:27:15;2.53;;;2.30;;
65545;SDS011;52177;55.968;37.498;2023-03-31T01:28:55;2.90;;;2.70;;
65545;SDS011;52177;55.968;37.498;2023-03-31T01:37:12;3.10;;;2.80;;
65545;SDS011;52177;55.968;37.498;2023-03-31T01:38:53;2.97;;;2.70;;
65545;SDS011;52177;55.968;37.498;2023-03-31T01:41:10;2.25;;;2.08;;
65545;SDS011;52177;55.968;37.498;2023-03-31T01:44:32;2.67;;;2.40;;
65545;SDS011;52177;55.968;37.498;2023-03-31T01:47:27;2.40;;;2.20;;
65545;SDS011;52177;55.968;37.498;2023-03-31T01:48:08;2.70;;;2.50;;
65545;SDS011;52177;55.968;37.498;2023-03-31T01:48:46;3.40;;;2.92;;
65545;SDS011;52177;55.968;37.498;2023-03-31T01:49:45;2.65;;;2.45;;
65545;SDS011;52177;55.968;37.498;2023-03-31T01:52:27;2.60;;;2.40;;
65545;SDS011;52177;55.968;37.498;2023-03-31T01:53:26;2.70;;;2.42;;
65545;SDS011;52177;55.968;37.498;2023-03-31T01:54:02;3.08;;;2.70;;
65545;SDS011;52177;55.968;37.498;2023-03-31T01:55:17;2.40;;;2.15;;
65545;SDS011;52177;55.968;37.498;2023-03-31T01:55:37;2.95;;;2.50;;
65545;SDS011;52177;55.968;37.498;2023-03-31T01:56:57;2.60;;;2.40;;
65545;SDS011;52177;55.968;37.498;2023-03-31T01:57:44;2.88;;;2.67;;
65545;SDS011;52177;55.968;37.498;2023-03-31T01:58:20;2.70;;;2.50;;
65545;SDS011;52177;55.968;37.498;2023-03-31T01:58:57;2.83;;;2.63;;
65545;SDS011;52177;55.968;37.498;2023-03-31T01:59:34;3.20;;;2.90;;
65545;SDS011;52177;55.968;37.498;2023-03-31T02:00:23;2.63;;;2.42;;
65545;SDS011;52177;55.968;37.498;2023-03-31T02:01:00;2.60;;;2.40;;
65545;SDS011;52177;55.968;37.498;2023-03-31T02:01:51;2.40;;;2.20;;
65545;SDS011;52177;55.968;37.498;2023-03-31T02:02:31;3.05;;;2.80;;
65545;SDS011;52177;55.968;37.498;2023-03-31T02:03:10;2.40;;;2.20;;
65545;SDS011;52177;55.968;37.498;2023-03-31T02:03:56;4.03;;;2.88;;
65545;SDS011;52177;55.968;37.498;2023-03-31T02:04:35;2.53;;;2.30;;
65545;SDS011;52177;55.968;37.498;2023-03-31T02:05:15;3.45;;;2.78;;
65545;SDS011;52177;55.968;37.498;2023-03-31T02:05:53;3.10;;;2.83;;
65545;SDS011;52177;55.968;37.498;2023-03-31T02:06:26;2.83;;;2.63;;
65545;SDS011;52177;55.968;37.498;2023-03-31T02:07:06;2.50;;;2.30;;
65545;SDS011;52177;55.968;37.498;2023-03-31T02:07:51;2.67;;;2.47;;
65545;SDS011;52177;55.968;37.498;2023-03-31T02:08:29;2.65;;;2.45;;
65545;SDS011;52177;55.968;37.498;2023-03-31T02:09:04;2.70;;;2.50;;
65545;SDS011;52177;55.968;37.498;2023-03-31T02:09:41;2.53;;;2.33;;
65545;SDS011;52177;55.968;37.498;2023-03-31T02:10:15;3.22;;;2.65;;
65545;SDS011;52177;55.968;37.498;2023-03-31T02:10:47;2.70;;;2.42;;
65545;SDS011;52177;55.968;37.498;2023-03-31T02:11:19;2.55;;;2.35;;
65545;SDS011;52177;55.968;37.498;2023-03-31T02:11:51;2.83;;;2.63;;
65545;SDS011;52177;55.968;37.498;2023-03-31T02:12:25;2.70;;;2.50;;
65545;SDS011;52177;55.968;37.498;2023-03-31T02:13:00;3.72;;;2.38;;
65545;SDS011;52177;55.968;37.498;2023-03-31T02:13:33;2.80;;;2.60;;
65545;SDS011;52177;55.968;37.498;2023-03-31T02:14:08;2.80;;;2.60;;
65545;SDS011;52177;55.968;37.498;2023-03-31T02:14:43;3.85;;;2.42;;
65545;SDS011;52177;55.968;37.498;2023-03-31T02:15:20;2.80;;;2.60;;
65545;SDS011;52177;55.968;37.498;2023-03-31T02:15:57;2.83;;;2.60;;
65545;SDS011;52177;55.968;37.498;2023-03-31T02:16:32;2.60;;;2.40;;
65545;SDS011;52177;55.968;37.498;2023-03-31T02:17:06;2.45;;;2.25;;
65545;SDS011;52177;55.968;37.498;2023-03-31T02:17:44;2.53;;;2.33;;
65545;SDS011;52177;55.968;37.498;2023-03-31T02:18:20;2.40;;;2.20;;
65545;SDS011;52177;55.968;37.498;2023-03-31T02:18:56;3.25;;;2.58;;
65545;SDS011;52177;55.968;37.498;2023-03-31T02:19:36;3.40;;;2.30;;
65545;SDS011;52177;55.968;37.498;2023-03-31T02:20:10;3.13;;;2.53;;
65545;SDS011;52177;55.968;37.498;2023-03-31T02:20:45;2.80;;;2.60;;
65545;SDS011;52177;55.968;37.498;2023-03-31T02:21:19;2.95;;;2.75;;
65545;SDS011;52177;55.968;37.498;2023-03-31T02:21:51;3.05;;;2.85;;
65545;SDS011;52177;55.968;37.498;2023-03-31T02:22:24;2.33;;;2.22;;
65545;SDS011;52177;55.968;37.498;2023-03-31T02:22:59;2.75;;;2.45;;
65545;SDS011;52177;55.968;37.498;2023-03-31T02:23:30;2.53;;;2.30;;
65545;SDS011;52177;55.968;37.498;2023-03-31T02:24:03;2.58;;;2.38;;
65545;SDS011;52177;55.968;37.498;2023-03-31T02:24:36;3.20;;;2.90;;
65545;SDS011;52177;55.968;37.498;2023-03-31T02:25:10;2.80;;;2.60;;
65545;SDS011;52177;55.968;37.498;2023-03-31T02:25:45;3.00;;;2.80;;
65545;SDS011;52177;55.968;37.498;2023-03-31T02:26:22;2.70;;;2.50;;
65545;SDS011;52177;55.968;37.498;2023-03-31T02:27:03;3.05;;;2.85;;
65545;SDS011;52177;55.968;37.498;2023-03-31T02:27:41;2.95;;;2.72;;
65545;SDS011;52177;55.968;37.498;2023-03-31T02:28:19;2.80;;;2.50;;
65545;SDS011;52177;55.968;37.498;2023-03-31T02:28:51;2.92;;;2.72;;
65545;SDS011;52177;55.968;37.498;2023-03-31T02:29:21;2.67;;;2.47;;
65545;SDS011;52177;55.968;37.498;2023-03-31T02:29:52;3.38;;;2.90;;
65545;SDS011;52177;55.968;37.498;2023-03-31T02:30:26;2.85;;;2.65;;
65545;SDS011;52177;55.968;37.498;2023-03-31T02:32:49;2.75;;;2.55;;
65545;SDS011;52177;55.968;37.498;2023-03-31T02:33:19;2.78;;;2.58;;
65545;SDS011;52177;55.968;37.498;2023-03-31T02:33:50;3.38;;;3.05;;
65545;SDS011;52177;55.968;37.498;2023-03-31T02:34:20;2.78;;;2.58;;
65545;SDS011;52177;55.968;37.498;2023-03-31T02:34:53;3.40;;;3.10;;
65545;SDS011;52177;55.968;37.498;2023-03-31T02:35:24;3.00;;;2.80;;
65545;SDS011;52177;55.968;37.498;2023-03-31T02:35:55;3.13;;;2.92;;
65545;SDS011;52177;55.968;37.498;2023-03-31T02:36:27;2.85;;;2.60;;
65545;SDS011;52177;55.968;37.498;2023-03-31T02:36:58;2.88;;;2.67;;
65545;SDS011;52177;55.968;37.498;2023-03-31T02:37:29;3.17;;;2.95;;
65545;SDS011;52177;55.968;37.498;2023-03-31T02:38:00;3.05;;;2.80;;
65545;SDS011;52177;55.968;37.498;2023-03-31T02:38:32;3.20;;;2.97;;
65545;SDS011;52177;55.968;37.498;2023-03-31T02:39:08;3.00;;;2.80;;
65545;SDS011;52177;55.968;37.498;2023-03-31T02:39:43;3.47;;;3.17;;
65545;SDS011;52177;55.968;37.498;2023-03-31T02:40:20;3.63;;;3.08;;
65545;SDS011;52177;55.968;37.498;2023-03-31T02:40:52;3.08;;;2.78;;
65545;SDS011;52177;55.968;37.498;2023-03-31T02:41:22;3.72;;;3.42;;
65545;SDS011;52177;55.968;37.498;2023-03-31T02:41:53;3.45;;;3.13;;
65545;SDS011;52177;55.968;37.498;2023-03-31T02:42:23;3.25;;;2.95;;
65545;SDS011;52177;55.968;37.498;2023-03-31T02:42:54;3.63;;;2.70;;
65545;SDS011;52177;55.968;37.498;2023-03-31T02:43:26;3.15;;;2.70;;
65545;SDS011;52177;55.968;37.498;2023-03-31T02:43:56;3.33;;;3.03;;
65545;SDS011;52177;55.968;37.498;2023-03-31T02:44:26;3.45;;;3.15;;
65545;SDS011;52177;55.968;37.498;2023-03-31T02:45:01;4.22;;;3.10;;
65545;SDS011;52177;55.968;37.498;2023-03-31T02:45:42;3.22;;;2.97;;
65545;SDS011;52177;55.968;37.498;2023-03-31T02:46:16;2.83;;;2.63;;
65545;SDS011;52177;55.968;37.498;2023-03-31T02:46:46;3.38;;;2.70;;
65545;SDS011;52177;55.968;37.498;2023-03-31T02:47:19;3.20;;;2.90;;
65545;SDS011;52177;55.968;37.498;2023-03-31T02:47:51;3.38;;;3.05;;
65545;SDS011;52177;55.968;37.498;2023-03-31T02:48:22;3.35;;;2.90;;
65545;SDS011;52177;55.968;37.498;2023-03-31T02:49:00;3.47;;;3.08;;
65545;SDS011;52177;55.968;37.498;2023-03-31T02:49:33;3.38;;;3.08;;
65545;SDS011;52177;55.968;37.498;2023-03-31T02:50:05;3.40;;;3.10;;
65545;SDS011;52177;55.968;37.498;2023-03-31T02:51:00;3.25;;;3.05;;
65545;SDS011;52177;55.968;37.498;2023-03-31T02:51:51;3.03;;;2.80;;
65545;SDS011;52177;55.968;37.498;2023-03-31T02:55:19;3.05;;;2.75;;
65545;SDS011;52177;55.968;37.498;2023-03-31T02:58:44;3.05;;;2.80;;
65545;SDS011;52177;55.968;37.498;2023-03-31T02:59:31;3.03;;;2.72;;
65545;SDS011;52177;55.968;37.498;2023-03-31T03:00:06;3.05;;;2.85;;
65545;SDS011;52177;55.968;37.498;2023-03-31T03:00:55;3.22;;;3.03;;
65545;SDS011;52177;55.968;37.498;2023-03-31T03:02:21;3.50;;;3.15;;
65545;SDS011;52177;55.968;37.498;2023-03-31T03:04:36;4.75;;;3.05;;
65545;SDS011;52177;55.968;37.498;2023-03-31T03:11:20;3.58;;;3.00;;
65545;SDS011;52177;55.968;37.498;2023-03-31T03:12:12;3.53;;;3.08;;
65545;SDS011;52177;55.968;37.498;2023-03-31T03:13:06;3.53;;;3.15;;
65545;SDS011;52177;55.968;37.498;2023-03-31T03:14:25;4.07;;;2.97;;
65545;SDS011;52177;55.968;37.498;2023-03-31T03:14:50;3.38;;;2.78;;
65545;SDS011;52177;55.968;37.498;2023-03-31T03:15:32;2.72;;;2.53;;
65545;SDS011;52177;55.968;37.498;2023-03-31T03:16:18;3.40;;;3.10;;
65545;SDS011;52177;55.968;37.498;2023-03-31T03:16:58;3.22;;;2.88;;
65545;SDS011;52177;55.968;37.498;2023-03-31T03:17:36;3.47;;;2.85;;
65545;SDS011;52177;55.968;37.498;2023-03-31T03:18:09;3.17;;;2.80;;
65545;SDS011;52177;55.968;37.498;2023-03-31T03:18:40;3.25;;;2.97;;
65545;SDS011;52177;55.968;37.498;2023-03-31T03:19:16;3.35;;;3.00;;
65545;SDS011;52177;55.968;37.498;2023-03-31T03:19:49;3.08;;;2.80;;
65545;SDS011;52177;55.968;37.498;2023-03-31T03:20:23;3.03;;;2.83;;
65545;SDS011;52177;55.968;37.498;2023-03-31T03:20:53;3.35;;;3.10;;
65545;SDS011;52177;55.968;37.498;2023-03-31T03:21:24;3.40;;;3.10;;
65545;SDS011;52177;55.968;37.498;2023-03-31T03:21:54;3.00;;;2.80;;
65545;SDS011;52177;55.968;37.498;2023-03-31T03:22:25;3.47;;;3.20;;
65545;SDS011;52177;55.968;37.498;2023-03-31T03:22:55;5.47;;;3.20;;
65545;SDS011;52177;55.968;37.498;2023-03-31T03:23:26;3.40;;;3.10;;
65545;SDS011;52177;55.968;37.498;2023-03-31T03:23:56;3.35;;;3.05;;
65545;SDS011;52177;55.968;37.498;2023-03-31T03:24:27;3.45;;;3.03;;
65545;SDS011;52177;55.968;37.498;2023-03-31T03:24:58;3.97;;;3.35;;
65545;SDS011;52177;55.968;37.498;2023-03-31T03:25:28;3.40;;;3.10;;
65545;SDS011;52177;55.968;37.498;2023-03-31T03:25:59;3.30;;;3.00;;
65545;SDS011;52177;55.968;37.498;2023-03-31T03:26:29;3.05;;;2.80;;
65545;SDS011;52177;55.968;37.498;2023-03-31T03:27:04;3.83;;;2.88;;
65545;SDS011;52177;55.968;37.498;2023-03-31T03:27:34;3.35;;;3.05;;
65545;SDS011;52177;55.968;37.498;2023-03-31T03:28:04;3.25;;;3.05;;
65545;SDS011;52177;55.968;37.498;2023-03-31T03:28:36;3.35;;;3.05;;
65545;SDS011;52177;55.968;37.498;2023-03-31T03:29:06;3.20;;;2.95;;
65545;SDS011;52177;55.968;37.498;2023-03-31T03:29:37;3.00;;;2.80;;
65545;SDS011;52177;55.968;37.498;2023-03-31T03:30:08;3.45;;;3.15;;
65545;SDS011;52177;55.968;37.498;2023-03-31T03:30:40;3.20;;;2.95;;
65545;SDS011;52177;55.968;37.498;2023-03-31T03:31:10;4.38;;;3.33;;
65545;SDS011;52177;55.968;37.498;2023-03-31T03:31:42;3.55;;;3.25;;
65545;SDS011;52177;55.968;37.498;2023-03-31T03:32:12;3.30;;;3.05;;
65545;SDS011;52177;55.968;37.498;2023-03-31T03:32:43;3.58;;;3.17;;
65545;SDS011;52177;55.968;37.498;2023-03-31T03:33:13;3.45;;;3.17;;
65545;SDS011;52177;55.968;37.498;2023-03-31T03:33:45;3.60;;;3.30;;
65545;SDS011;52177;55.968;37.498;2023-03-31T03:34:16;3.40;;;3.10;;
65545;SDS011;52177;55.968;37.498;2023-03-31T03:34:49;4.63;;;3.50;;
65545;SDS011;52177;55.968;37.498;2023-03-31T03:35:19;3.70;;;3.20;;
65545;SDS011;52177;55.968;37.498;2023-03-31T03:35:49;5.47;;;3.05;;
65545;SDS011;52177;55.968;37.498;2023-03-31T03:36:20;3.63;;;3.33;;
65545;SDS011;52177;55.968;37.498;2023-03-31T03:36:51;3.38;;;3.08;;
65545;SDS011;52177;55.968;37.498;2023-03-31T03:37:22;3.70;;;3.40;;
65545;SDS011;52177;55.968;37.498;2023-03-31T03:37:52;3.55;;;3.20;;
65545;SDS011;52177;55.968;37.498;2023-03-31T03:38:22;3.20;;;3.00;;
65545;SDS011;52177;55.968;37.498;2023-03-31T03:38:53;3.50;;;3.20;;
65545;SDS011;52177;55.968;37.498;2023-03-31T03:39:23;5.43;;;3.38;;
65545;SDS011;52177;55.968;37.498;2023-03-31T03:39:53;3.35;;;3.05;;
65545;SDS011;52177;55.968;37.498;2023-03-31T03:40:24;3.40;;;3.10;;
65545;SDS011;52177;55.968;37.498;2023-03-31T03:40:54;3.33;;;3.03;;
65545;SDS011;52177;55.968;37.498;2023-03-31T03:41:25;3.38;;;3.08;;
65545;SDS011;52177;55.968;37.498;2023-03-31T03:41:55;3.83;;;3.42;;
65545;SDS011;52177;55.968;37.498;2023-03-31T03:42:25;3.47;;;3.17;;
65545;SDS011;52177;55.968;37.498;2023-03-31T03:42:56;3.70;;;3.13;;
65545;SDS011;52177;55.968;37.498;2023-03-31T03:43:26;3.58;;;3.28;;
65545;SDS011;52177;55.968;37.498;2023-03-31T03:43:56;3.70;;;3.40;;
65545;SDS011;52177;55.968;37.498;2023-03-31T03:44:27;3.45;;;3.20;;
65545;SDS011;52177;55.968;37.498;2023-03-31T03:44:57;3.63;;;3.33;;
65545;SDS011;52177;55.968;37.498;2023-03-31T03:45:27;3.60;;;3.30;;
65545;SDS011;52177;55.968;37.498;2023-03-31T03:45:59;4.03;;;2.80;;
65545;SDS011;52177;55.968;37.498;2023-03-31T03:46:29;3.72;;;3.42;;
65545;SDS011;52177;55.968;37.498;2023-03-31T03:47:00;3.25;;;2.95;;
65545;SDS011;52177;55.968;37.498;2023-03-31T03:47:30;3.67;;;3.38;;
65545;SDS011;52177;55.968;37.498;2023-03-31T03:48:01;6.50;;;3.78;;
65545;SDS011;52177;55.968;37.498;2023-03-31T03:48:31;3.80;;;3.47;;
65545;SDS011;52177;55.968;37.498;2023-03-31T03:49:02;3.38;;;3.08;;
65545;SDS011;52177;55.968;37.498;2023-03-31T03:49:32;3.90;;;3.50;;
65545;SDS011;52177;55.968;37.498;2023-03-31T03:50:03;3.38;;;3.13;;
65545;SDS011;52177;55.968;37.498;2023-03-31T03:50:34;3.55;;;3.25;;
65545;SDS011;52177;55.968;37.498;2023-03-31T03:51:05;3.40;;;3.10;;
65545;SDS011;52177;55.968;37.498;2023-03-31T03:51:36;3.67;;;3.38;;
65545;SDS011;52177;55.968;37.498;2023-03-31T03:52:06;4.10;;;3.70;;
65545;SDS011;52177;55.968;37.498;2023-03-31T03:52:37;3.17;;;2.88;;
65545;SDS011;52177;55.968;37.498;2023-03-31T03:53:08;3.83;;;3.30;;
65545;SDS011;52177;55.968;37.498;2023-03-31T03:53:39;3.58;;;3.08;;
65545;SDS011;52177;55.968;37.498;2023-03-31T03:54:09;3.72;;;3.42;;
65545;SDS011;52177;55.968;37.498;2023-03-31T03:54:39;4.05;;;3.65;;
65545;SDS011;52177;55.968;37.498;2023-03-31T03:55:10;3.90;;;3.58;;
65545;SDS011;52177;55.968;37.498;2023-03-31T03:55:41;4.88;;;3.53;;
65545;SDS011;52177;55.968;37.498;2023-03-31T03:56:11;3.95;;;3.47;;
65545;SDS011;52177;55.968;37.498;2023-03-31T03:56:41;3.60;;;3.30;;
65545;SDS011;52177;55.968;37.498;2023-03-31T03:57:12;4.05;;;3.55;;
65545;SDS011;52177;55.968;37.498;2023-03-31T03:57:42;3.63;;;3.17;;
65545;SDS011;52177;55.968;37.498;2023-03-31T03:58:13;4.85;;;3.33;;
65545;SDS011;52177;55.968;37.498;2023-03-31T03:58:44;3.53;;;3.22;;
65545;SDS011;52177;55.968;37.498;2023-03-31T03:59:15;3.72;;;3.33;;
65545;SDS011;52177;55.968;37.498;2023-03-31T03:59:45;3.83;;;3.53;;
65545;SDS011;52177;55.968;37.498;2023-03-31T04:00:15;3.47;;;3.17;;
65545;SDS011;52177;55.968;37.498;2023-03-31T04:00:46;3.40;;;3.10;;
65545;SDS011;52177;55.968;37.498;2023-03-31T04:01:17;3.80;;;3.50;;
65545;SDS011;52177;55.968;37.498;2023-03-31T04:01:47;3.60;;;3.30;;
65545;SDS011;52177;55.968;37.498;2023-03-31T04:02:18;3.60;;;3.30;;
65545;SDS011;52177;55.968;37.498;2023-03-31T04:02:48;3.47;;;3.17;;